Time,TemperatureF,DewpointF,PressureIn,WindDirection,WindDirectionDegrees,WindSpeedMPH,WindSpeedGustMPH,Humidity,HourlyPrecipIn,Conditions,Clouds,dailyrainin,SoftwareType,DateUTC
2013-04-09 00:26:00,71.8,66.4,29.68,South,178,9.4,14.7,83,0.00,,,0.00,WUHU216DAVISVP2,2013-04-09 05:26:00,
2013-04-09 00:56:00,71.9,66.2,29.67,SE,125,7.3,17.0,82,0.00,,,0.00,WUHU216DAVISVP2,2013-04-09 05:56:00,
2013-04-09 01:26:00,72.1,66.4,29.66,South,176,5.3,13.0,82,0.00,,,0.00,WUHU216DAVISVP2,2013-04-09 06:26:00,
2013-04-09 01:56:00,72.3,66.1,29.66,SE,143,9.4,14.0,81,0.00,,,0.00,WUHU216DAVISVP2,2013-04-09 06:56:00,
2013-04-09 02:26:00,72.2,66.0,29.66,SSE,152,8.4,12.6,81,0.00,,,0.00,WUHU216DAVISVP2,2013-04-09 07:26:00,
2013-04-09 02:56:00,72.3,65.9,29.65,SE,137,9.4,13.0,80,0.00,,,0.00,WUHU216DAVISVP2,2013-04-09 07:56:00,
2013-04-09 03:26:00,72.2,65.8,29.63,SE,143,3.2,18.0,80,0.00,,,0.00,WUHU216DAVISVP2,2013-04-09 08:26:00,
2013-04-09 03:56:00,72.0,65.6,29.62,SSE,166,7.3,18.9,80,0.00,,,0.00,WUHU216DAVISVP2,2013-04-09 08:56:00,
2013-04-09 04:26:00,71.7,65.6,29.63,SSE,168,6.3,12.6,81,0.00,,,0.00,WUHU216DAVISVP2,2013-04-09 09:26:00,
2013-04-09 04:56:00,71.5,65.8,29.63,SE,141,8.4,12.0,82,0.00,,,0.00,WUHU216DAVISVP2,2013-04-09 09:56:00,
2013-04-09 05:27:00,71.2,65.8,29.62,SE,139,3.2,10.5,83,0.00,,,0.00,WUHU216DAVISVP2,2013-04-09 10:27:00,
2013-04-09 05:57:00,71.1,66.0,29.63,SE,141,3.2,8.4,84,0.00,,,0.00,WUHU216DAVISVP2,2013-04-09 10:57:00,
2013-04-09 06:27:00,70.9,66.2,29.64,ESE,116,1.0,4.0,85,0.00,,,0.00,WUHU216DAVISVP2,2013-04-09 11:27:00,
2013-04-09 06:57:00,71.0,66.6,29.63,SE,143,5.3,8.0,86,0.00,,,0.00,WUHU216DAVISVP2,2013-04-09 11:57:00,
2013-04-09 07:27:00,71.2,66.8,29.64,SE,143,3.2,10.0,86,0.00,,,0.00,WUHU216DAVISVP2,2013-04-09 12:27:00,
2013-04-09 07:57:00,71.1,66.7,29.65,SE,135,5.3,14.7,86,0.00,,,0.00,WUHU216DAVISVP2,2013-04-09 12:57:00,
2013-04-09 08:27:00,71.3,66.6,29.65,SE,126,5.3,10.0,85,0.00,,,0.00,WUHU216DAVISVP2,2013-04-09 13:27:00,
2013-04-09 08:57:00,71.2,66.8,29.64,SE,145,10.5,10.5,86,0.00,,,0.00,WUHU216DAVISVP2,2013-04-09 13:57:00,
2013-04-09 09:27:00,71.3,66.9,29.64,ESE,108,3.2,13.6,86,0.00,,,0.00,WUHU216DAVISVP2,2013-04-09 14:27:00,
2013-04-09 09:57:00,72.2,67.1,29.65,SE,132,3.2,12.0,84,0.00,,,0.00,WUHU216DAVISVP2,2013-04-09 14:57:00,
2013-04-09 10:27:00,72.8,67.4,29.66,SE,143,4.2,11.0,83,0.00,,,0.00,WUHU216DAVISVP2,2013-04-09 15:27:00,
2013-04-09 10:57:00,73.0,67.2,29.66,SE,129,3.2,13.6,82,0.00,,,0.00,WUHU216DAVISVP2,2013-04-09 15:57:00,
2013-04-09 11:27:00,73.4,67.6,29.66,SE,131,4.2,9.0,82,0.00,,,0.00,WUHU216DAVISVP2,2013-04-09 16:27:00,
2013-04-09 11:57:00,74.8,68.3,29.66,SE,145,3.2,11.0,80,0.00,,,0.00,WUHU216DAVISVP2,2013-04-09 16:57:00,
2013-04-09 12:27:00,76.5,68.7,29.66,SE,138,9.4,10.5,77,0.00,,,0.00,WUHU216DAVISVP2,2013-04-09 17:27:00,
2013-04-09 12:57:00,80.7,69.8,29.63,SE,141,7.3,12.6,69,0.00,,,0.00,WUHU216DAVISVP2,2013-04-09 17:57:00,
2013-04-09 13:27:00,82.9,70.2,29.61,SSE,164,4.2,15.0,65,0.00,,,0.00,WUHU216DAVISVP2,2013-04-09 18:27:00,
2013-04-09 13:57:00,85.0,70.0,29.60,South,169,8.4,12.0,61,0.00,,,0.00,WUHU216DAVISVP2,2013-04-09 18:57:00,
2013-04-09 14:27:00,86.2,69.4,29.58,South,190,8.4,11.6,57,0.00,,,0.00,WUHU216DAVISVP2,2013-04-09 19:27:00,
2013-04-09 14:57:00,87.8,69.9,29.56,SE,137,5.3,13.0,55,0.00,,,0.00,WUHU216DAVISVP2,2013-04-09 19:57:00,
2013-04-09 15:27:00,89.2,68.3,29.55,SSE,150,6.3,14.0,50,0.00,,,0.00,WUHU216DAVISVP2,2013-04-09 20:27:00,
2013-04-09 15:58:00,88.7,70.7,29.53,ESE,113,3.2,14.7,55,0.00,,,0.00,WUHU216DAVISVP2,2013-04-09 20:58:00,
2013-04-09 16:28:00,88.4,69.9,29.52,SE,139,5.3,15.0,54,0.00,,,0.00,WUHU216DAVISVP2,2013-04-09 21:28:00,
2013-04-09 16:58:00,88.5,69.7,29.52,ESE,112,7.3,19.0,54,0.00,,,0.00,WUHU216DAVISVP2,2013-04-09 21:58:00,
2013-04-09 17:28:00,88.7,69.0,29.52,SE,135,6.3,12.0,52,0.00,,,0.00,WUHU216DAVISVP2,2013-04-09 22:28:00,
2013-04-09 17:58:00,87.8,69.3,29.52,ESE,105,7.3,14.0,54,0.00,,,0.00,WUHU216DAVISVP2,2013-04-09 22:58:00,
2013-04-09 18:28:00,85.8,69.6,29.52,ESE,116,10.5,14.7,58,0.00,,,0.00,WUHU216DAVISVP2,2013-04-09 23:28:00,
2013-04-09 18:58:00,83.8,70.1,29.52,ESE,118,7.3,15.0,63,0.00,,,0.00,WUHU216DAVISVP2,2013-04-09 23:58:00,
2013-04-09 19:28:00,82.3,69.4,29.53,SE,131,5.3,15.0,65,0.00,,,0.00,WUHU216DAVISVP2,2013-04-10 00:28:00,
2013-04-09 19:58:00,81.1,69.1,29.53,ESE,118,9.4,11.6,67,0.00,,,0.00,WUHU216DAVISVP2,2013-04-10 00:58:00,
2013-04-09 20:28:00,78.6,69.6,29.56,East,101,8.4,14.7,74,0.00,,,0.00,WUHU216DAVISVP2,2013-04-10 01:28:00,
2013-04-09 20:58:00,76.6,69.4,29.57,ESE,109,5.3,12.6,78,0.00,,,0.00,WUHU216DAVISVP2,2013-04-10 01:58:00,
2013-04-09 21:28:00,75.1,69.0,29.59,ESE,113,7.3,15.0,81,0.00,,,0.00,WUHU216DAVISVP2,2013-04-10 02:28:00,
2013-04-09 21:58:00,75.0,68.9,29.61,SSE,159,9.4,12.6,81,0.00,,,0.00,WUHU216DAVISVP2,2013-04-10 02:58:00,
2013-04-09 22:28:00,75.1,69.0,29.62,SSE,151,9.4,14.7,81,0.00,,,0.00,WUHU216DAVISVP2,2013-04-10 03:28:00,
2013-04-09 22:58:00,75.0,68.9,29.62,SE,140,5.3,16.8,81,0.00,,,0.00,WUHU216DAVISVP2,2013-04-10 03:58:00,
2013-04-09 23:28:00,74.9,69.1,29.63,SE,130,8.4,13.6,82,0.00,,,0.00,WUHU216DAVISVP2,2013-04-10 04:28:00,
2013-04-09 23:58:00,74.9,68.8,29.64,SE,137,7.3,15.8,81,0.00,,,0.00,WUHU216DAVISVP2,2013-04-10 04:58:00,